sensor_id;sensor_type;location;lat;lon;timestamp;temperature;humidity
40374;DHT22;26079;45.958;12.492;2023-05-07T00:01:43;15.80;99.90
40374;DHT22;26079;45.958;12.492;2023-05-07T00:04:09;15.80;99.90
40374;DHT22;26079;45.958;12.492;2023-05-07T00:06:34;15.80;99.90
40374;DHT22;26079;45.958;12.492;2023-05-07T00:09:01;15.70;99.90
40374;DHT22;26079;45.958;12.492;2023-05-07T00:11:27;15.70;99.90
40374;DHT22;26079;45.958;12.492;2023-05-07T00:13:53;15.60;99.90
40374;DHT22;26079;45.958;12.492;2023-05-07T00:16:19;15.70;99.90
40374;DHT22;26079;45.958;12.492;2023-05-07T00:18:45;15.60;99.90
40374;DHT22;26079;45.958;12.492;2023-05-07T00:21:11;15.60;99.90
40374;DHT22;26079;45.958;12.492;2023-05-07T00:23:37;15.60;99.90
40374;DHT22;26079;45.958;12.492;2023-05-07T00:26:03;15.40;99.90
40374;DHT22;26079;45.958;12.492;2023-05-07T00:28:29;15.40;99.90
40374;DHT22;26079;45.958;12.492;2023-05-07T00:30:54;15.40;99.90
40374;DHT22;26079;45.958;12.492;2023-05-07T00:33:20;15.40;99.90
40374;DHT22;26079;45.958;12.492;2023-05-07T00:35:46;15.40;99.90
40374;DHT22;26079;45.958;12.492;2023-05-07T00:38:12;15.50;99.90
40374;DHT22;26079;45.958;12.492;2023-05-07T00:40:37;15.30;99.90
40374;DHT22;26079;45.958;12.492;2023-05-07T00:43:03;15.20;99.90
40374;DHT22;26079;45.958;12.492;2023-05-07T00:45:29;15.20;99.90
40374;DHT22;26079;45.958;12.492;2023-05-07T00:47:59;15.20;99.90
40374;DHT22;26079;45.958;12.492;2023-05-07T00:50:26;15.20;99.90
40374;DHT22;26079;45.958;12.492;2023-05-07T00:52:53;15.00;99.90
40374;DHT22;26079;45.958;12.492;2023-05-07T00:55:18;14.90;99.90
40374;DHT22;26079;45.958;12.492;2023-05-07T00:57:45;14.80;99.90
40374;DHT22;26079;45.958;12.492;2023-05-07T01:00:11;14.80;99.90
40374;DHT22;26079;45.958;12.492;2023-05-07T01:02:41;14.80;99.90
40374;DHT22;26079;45.958;12.492;2023-05-07T01:05:17;14.70;99.90
40374;DHT22;26079;45.958;12.492;2023-05-07T01:07:44;14.70;99.90
40374;DHT22;26079;45.958;12.492;2023-05-07T01:10:11;14.70;99.90
40374;DHT22;26079;45.958;12.492;2023-05-07T01:12:38;14.70;99.90
40374;DHT22;26079;45.958;12.492;2023-05-07T01:15:06;14.70;99.90
40374;DHT22;26079;45.958;12.492;2023-05-07T01:17:36;14.70;99.90
40374;DHT22;26079;45.958;12.492;2023-05-07T01:20:02;14.60;99.90
40374;DHT22;26079;45.958;12.492;2023-05-07T01:22:34;14.50;99.90
40374;DHT22;26079;45.958;12.492;2023-05-07T01:25:02;14.40;99.90
40374;DHT22;26079;45.958;12.492;2023-05-07T01:27:28;14.40;99.90
40374;DHT22;26079;45.958;12.492;2023-05-07T01:29:54;14.40;99.90
40374;DHT22;26079;45.958;12.492;2023-05-07T01:35:11;14.40;99.90
40374;DHT22;26079;45.958;12.492;2023-05-07T01:37:39;14.40;99.90
40374;DHT22;26079;45.958;12.492;2023-05-07T01:40:05;14.30;99.90
40374;DHT22;26079;45.958;12.492;2023-05-07T01:42:32;14.30;99.90
40374;DHT22;26079;45.958;12.492;2023-05-07T01:44:58;14.20;99.90
40374;DHT22;26079;45.958;12.492;2023-05-07T01:47:25;14.20;99.90
40374;DHT22;26079;45.958;12.492;2023-05-07T01:49:51;14.20;99.90
40374;DHT22;26079;45.958;12.492;2023-05-07T01:52:17;14.20;99.90
40374;DHT22;26079;45.958;12.492;2023-05-07T01:54:42;14.20;99.90
40374;DHT22;26079;45.958;12.492;2023-05-07T01:57:08;14.20;99.90
40374;DHT22;26079;45.958;12.492;2023-05-07T01:59:34;14.20;99.90
40374;DHT22;26079;45.958;12.492;2023-05-07T02:01:59;14.20;99.90
40374;DHT22;26079;45.958;12.492;2023-05-07T02:04:26;14.20;99.90
40374;DHT22;26079;45.958;12.492;2023-05-07T02:06:51;14.20;99.90
40374;DHT22;26079;45.958;12.492;2023-05-07T02:09:18;14.20;99.90
40374;DHT22;26079;45.958;12.492;2023-05-07T02:11:44;14.20;99.90
40374;DHT22;26079;45.958;12.492;2023-05-07T02:14:10;14.20;99.90
40374;DHT22;26079;45.958;12.492;2023-05-07T02:16:36;14.20;99.90
40374;DHT22;26079;45.958;12.492;2023-05-07T02:19:02;14.10;99.90
40374;DHT22;26079;45.958;12.492;2023-05-07T02:21:27;14.10;99.90
40374;DHT22;26079;45.958;12.492;2023-05-07T02:23:53;14.10;99.90
40374;DHT22;26079;45.958;12.492;2023-05-07T02:26:19;14.10;99.90
40374;DHT22;26079;45.958;12.492;2023-05-07T02:28:45;14.10;99.90
40374;DHT22;26079;45.958;12.492;2023-05-07T02:31:10;14.10;99.90
40374;DHT22;26079;45.958;12.492;2023-05-07T02:33:36;14.10;99.90
40374;DHT22;26079;45.958;12.492;2023-05-07T02:36:14;14.10;99.90
40374;DHT22;26079;45.958;12.492;2023-05-07T02:38:40;14.10;99.90
40374;DHT22;26079;45.958;12.492;2023-05-07T02:41:05;14.10;99.90
40374;DHT22;26079;45.958;12.492;2023-05-07T02:43:31;14.00;99.90
40374;DHT22;26079;45.958;12.492;2023-05-07T02:46:03;14.00;99.90
40374;DHT22;26079;45.958;12.492;2023-05-07T02:48:29;14.00;99.90
40374;DHT22;26079;45.958;12.492;2023-05-07T02:50:55;13.90;99.90
40374;DHT22;26079;45.958;12.492;2023-05-07T02:53:21;13.90;99.90
40374;DHT22;26079;45.958;12.492;2023-05-07T02:55:46;13.90;99.90
40374;DHT22;26079;45.958;12.492;2023-05-07T02:58:12;13.90;99.90
40374;DHT22;26079;45.958;12.492;2023-05-07T03:00:38;13.90;99.90
40374;DHT22;26079;45.958;12.492;2023-05-07T03:03:03;13.90;99.90
40374;DHT22;26079;45.958;12.492;2023-05-07T03:05:29;13.90;99.90
40374;DHT22;26079;45.958;12.492;2023-05-07T03:07:55;13.80;99.90
40374;DHT22;26079;45.958;12.492;2023-05-07T03:10:21;13.80;99.90
40374;DHT22;26079;45.958;12.492;2023-05-07T03:12:46;13.70;99.90
40374;DHT22;26079;45.958;12.492;2023-05-07T03:15:12;13.70;99.90
40374;DHT22;26079;45.958;12.492;2023-05-07T03:17:38;13.70;99.90
40374;DHT22;26079;45.958;12.492;2023-05-07T03:20:04;13.60;99.90
40374;DHT22;26079;45.958;12.492;2023-05-07T03:22:30;13.60;99.90
40374;DHT22;26079;45.958;12.492;2023-05-07T03:24:56;13.60;99.90
40374;DHT22;26079;45.958;12.492;2023-05-07T03:27:22;13.60;99.90
40374;DHT22;26079;45.958;12.492;2023-05-07T03:29:47;13.60;99.90
40374;DHT22;26079;45.958;12.492;2023-05-07T03:32:13;13.60;99.90
40374;DHT22;26079;45.958;12.492;2023-05-07T03:34:39;13.60;99.90
40374;DHT22;26079;45.958;12.492;2023-05-07T03:37:05;13.50;99.90
40374;DHT22;26079;45.958;12.492;2023-05-07T03:39:31;13.50;99.90
40374;DHT22;26079;45.958;12.492;2023-05-07T03:41:58;13.50;99.90
40374;DHT22;26079;45.958;12.492;2023-05-07T03:44:23;13.50;99.90
40374;DHT22;26079;45.958;12.492;2023-05-07T03:46:49;13.40;99.90
40374;DHT22;26079;45.958;12.492;2023-05-07T03:49:14;13.40;99.90
40374;DHT22;26079;45.958;12.492;2023-05-07T03:51:40;13.40;99.90
40374;DHT22;26079;45.958;12.492;2023-05-07T03:54:06;13.40;99.90
40374;DHT22;26079;45.958;12.492;2023-05-07T03:56:32;13.30;99.90
40374;DHT22;26079;45.958;12.492;2023-05-07T03:58:58;13.30;99.90
40374;DHT22;26079;45.958;12.492;2023-05-07T04:01:23;13.30;99.90
40374;DHT22;26079;45.958;12.492;2023-05-07T04:03:49;13.30;99.90
40374;DHT22;26079;45.958;12.492;2023-05-07T04:06:16;13.30;99.90
40374;DHT22;26079;45.958;12.492;2023-05-07T04:08:42;13.40;99.90
40374;DHT22;26079;45.958;12.492;2023-05-07T04:11:08;13.50;99.90
40374;DHT22;26079;45.958;12.492;2023-05-07T04:13:33;13.60;99.90
40374;DHT22;26079;45.958;12.492;2023-05-07T04:16:01;13.70;99.90
40374;DHT22;26079;45.958;12.492;2023-05-07T04:18:27;13.90;99.90
40374;DHT22;26079;45.958;12.492;2023-05-07T04:20:53;14.00;99.90
40374;DHT22;26079;45.958;12.492;2023-05-07T04:23:19;14.20;99.90
40374;DHT22;26079;45.958;12.492;2023-05-07T04:25:44;14.20;99.90
40374;DHT22;26079;45.958;12.492;2023-05-07T04:28:10;14.20;99.90
40374;DHT22;26079;45.958;12.492;2023-05-07T04:30:37;14.20;99.90
40374;DHT22;26079;45.958;12.492;2023-05-07T04:33:02;14.30;99.90
40374;DHT22;26079;45.958;12.492;2023-05-07T04:35:28;14.30;99.90
40374;DHT22;26079;45.958;12.492;2023-05-07T04:37:53;14.20;99.90
40374;DHT22;26079;45.958;12.492;2023-05-07T04:40:19;14.10;99.90
40374;DHT22;26079;45.958;12.492;2023-05-07T04:42:45;14.10;99.90
40374;DHT22;26079;45.958;12.492;2023-05-07T04:45:11;14.10;99.90
40374;DHT22;26079;45.958;12.492;2023-05-07T04:47:38;14.10;99.90
40374;DHT22;26079;45.958;12.492;2023-05-07T04:50:04;14.10;99.90
40374;DHT22;26079;45.958;12.492;2023-05-07T04:52:30;14.10;99.90
40374;DHT22;26079;45.958;12.492;2023-05-07T04:54:56;14.10;99.90
40374;DHT22;26079;45.958;12.492;2023-05-07T04:57:22;14.10;99.90
40374;DHT22;26079;45.958;12.492;2023-05-07T04:59:47;14.10;99.90
40374;DHT22;26079;45.958;12.492;2023-05-07T05:02:13;14.10;99.90
40374;DHT22;26079;45.958;12.492;2023-05-07T05:04:38;14.20;99.90
40374;DHT22;26079;45.958;12.492;2023-05-07T05:07:04;14.30;99.90
40374;DHT22;26079;45.958;12.492;2023-05-07T05:09:30;14.30;99.90
40374;DHT22;26079;45.958;12.492;2023-05-07T05:11:56;14.50;99.90
40374;DHT22;26079;45.958;12.492;2023-05-07T05:14:21;14.70;99.90
40374;DHT22;26079;45.958;12.492;2023-05-07T05:16:47;15.00;99.90
40374;DHT22;26079;45.958;12.492;2023-05-07T05:19:12;15.30;99.90
40374;DHT22;26079;45.958;12.492;2023-05-07T05:21:38;15.90;99.90
40374;DHT22;26079;45.958;12.492;2023-05-07T05:24:04;16.60;97.40
40374;DHT22;26079;45.958;12.492;2023-05-07T05:26:30;16.70;94.90
40374;DHT22;26079;45.958;12.492;2023-05-07T05:28:55;17.30;94.40
40374;DHT22;26079;45.958;12.492;2023-05-07T05:31:21;18.00;90.80
40374;DHT22;26079;45.958;12.492;2023-05-07T05:33:47;18.80;88.40
40374;DHT22;26079;45.958;12.492;2023-05-07T05:36:12;19.20;86.50
40374;DHT22;26079;45.958;12.492;2023-05-07T05:38:39;19.40;85.70
40374;DHT22;26079;45.958;12.492;2023-05-07T05:41:05;19.60;85.60
40374;DHT22;26079;45.958;12.492;2023-05-07T05:43:30;20.40;85.60
40374;DHT22;26079;45.958;12.492;2023-05-07T05:45:56;21.60;81.90
40374;DHT22;26079;45.958;12.492;2023-05-07T05:48:23;22.20;77.60
40374;DHT22;26079;45.958;12.492;2023-05-07T05:50:49;22.30;76.90
40374;DHT22;26079;45.958;12.492;2023-05-07T05:53:14;22.50;76.60
40374;DHT22;26079;45.958;12.492;2023-05-07T05:55:41;22.70;76.30
40374;DHT22;26079;45.958;12.492;2023-05-07T05:58:07;22.80;75.80
40374;DHT22;26079;45.958;12.492;2023-05-07T06:00:34;22.90;75.00
40374;DHT22;26079;45.958;12.492;2023-05-07T06:02:59;23.00;75.50
40374;DHT22;26079;45.958;12.492;2023-05-07T06:05:25;23.10;75.70
40374;DHT22;26079;45.958;12.492;2023-05-07T06:07:51;22.90;76.50
40374;DHT22;26079;45.958;12.492;2023-05-07T06:10:16;23.30;75.20
40374;DHT22;26079;45.958;12.492;2023-05-07T06:12:42;23.60;74.10
40374;DHT22;26079;45.958;12.492;2023-05-07T06:15:08;23.40;74.10
40374;DHT22;26079;45.958;12.492;2023-05-07T06:17:34;23.50;74.50
40374;DHT22;26079;45.958;12.492;2023-05-07T06:19:59;23.90;74.20
40374;DHT22;26079;45.958;12.492;2023-05-07T06:22:25;24.00;73.00
40374;DHT22;26079;45.958;12.492;2023-05-07T06:24:51;23.80;73.70
40374;DHT22;26079;45.958;12.492;2023-05-07T06:27:17;24.20;73.50
40374;DHT22;26079;45.958;12.492;2023-05-07T06:29:42;24.10;73.40
40374;DHT22;26079;45.958;12.492;2023-05-07T06:32:10;24.00;72.60
40374;DHT22;26079;45.958;12.492;2023-05-07T06:34:36;24.20;73.40
40374;DHT22;26079;45.958;12.492;2023-05-07T06:37:02;24.20;73.80
40374;DHT22;26079;45.958;12.492;2023-05-07T06:39:28;23.60;75.00
40374;DHT22;26079;45.958;12.492;2023-05-07T06:41:54;23.00;76.00
40374;DHT22;26079;45.958;12.492;2023-05-07T06:44:19;22.50;78.00
40374;DHT22;26079;45.958;12.492;2023-05-07T06:46:45;22.10;79.40
40374;DHT22;26079;45.958;12.492;2023-05-07T06:49:13;21.40;80.90
40374;DHT22;26079;45.958;12.492;2023-05-07T06:51:39;21.00;83.40
40374;DHT22;26079;45.958;12.492;2023-05-07T06:54:05;21.00;83.40
40374;DHT22;26079;45.958;12.492;2023-05-07T06:56:31;21.00;83.50
40374;DHT22;26079;45.958;12.492;2023-05-07T06:58:57;20.70;83.60
40374;DHT22;26079;45.958;12.492;2023-05-07T07:01:23;20.60;85.40
40374;DHT22;26079;45.958;12.492;2023-05-07T07:03:48;20.60;85.10
40374;DHT22;26079;45.958;12.492;2023-05-07T07:06:14;20.50;85.00
40374;DHT22;26079;45.958;12.492;2023-05-07T07:08:40;20.70;85.50
40374;DHT22;26079;45.958;12.492;2023-05-07T07:11:06;20.80;87.00
40374;DHT22;26079;45.958;12.492;2023-05-07T07:13:31;21.00;87.40
40374;DHT22;26079;45.958;12.492;2023-05-07T07:15:57;21.00;82.40
40374;DHT22;26079;45.958;12.492;2023-05-07T07:18:23;21.00;83.40
40374;DHT22;26079;45.958;12.492;2023-05-07T07:20:49;21.00;82.40
40374;DHT22;26079;45.958;12.492;2023-05-07T07:23:15;21.00;83.00
40374;DHT22;26079;45.958;12.492;2023-05-07T07:25:40;20.60;82.40
40374;DHT22;26079;45.958;12.492;2023-05-07T07:28:06;20.50;83.60
40374;DHT22;26079;45.958;12.492;2023-05-07T07:30:32;20.70;84.80
40374;DHT22;26079;45.958;12.492;2023-05-07T07:32:58;21.00;84.60
40374;DHT22;26079;45.958;12.492;2023-05-07T07:35:29;21.20;83.10
40374;DHT22;26079;45.958;12.492;2023-05-07T07:37:55;21.40;81.60
40374;DHT22;26079;45.958;12.492;2023-05-07T07:40:20;21.50;80.70
40374;DHT22;26079;45.958;12.492;2023-05-07T07:42:46;21.50;82.20
40374;DHT22;26079;45.958;12.492;2023-05-07T07:45:12;21.70;82.20
40374;DHT22;26079;45.958;12.492;2023-05-07T07:47:39;22.00;82.00
40374;DHT22;26079;45.958;12.492;2023-05-07T07:50:05;22.00;78.70
40374;DHT22;26079;45.958;12.492;2023-05-07T07:52:31;22.00;79.50
40374;DHT22;26079;45.958;12.492;2023-05-07T07:54:56;22.20;78.80
40374;DHT22;26079;45.958;12.492;2023-05-07T07:57:22;22.30;78.70
40374;DHT22;26079;45.958;12.492;2023-05-07T07:59:48;22.50;79.20
40374;DHT22;26079;45.958;12.492;2023-05-07T08:02:13;22.70;80.20
40374;DHT22;26079;45.958;12.492;2023-05-07T08:04:39;22.90;78.30
40374;DHT22;26079;45.958;12.492;2023-05-07T08:07:04;22.90;76.90
40374;DHT22;26079;45.958;12.492;2023-05-07T08:09:31;23.10;74.30
40374;DHT22;26079;45.958;12.492;2023-05-07T08:11:57;23.10;74.80
40374;DHT22;26079;45.958;12.492;2023-05-07T08:14:22;23.20;75.10
40374;DHT22;26079;45.958;12.492;2023-05-07T08:16:48;23.30;73.80
40374;DHT22;26079;45.958;12.492;2023-05-07T08:19:14;23.50;74.70
40374;DHT22;26079;45.958;12.492;2023-05-07T08:21:39;23.60;74.80
40374;DHT22;26079;45.958;12.492;2023-05-07T08:24:06;23.70;73.40
40374;DHT22;26079;45.958;12.492;2023-05-07T08:26:31;23.90;72.60
40374;DHT22;26079;45.958;12.492;2023-05-07T08:28:57;23.80;72.20
40374;DHT22;26079;45.958;12.492;2023-05-07T08:31:22;23.90;74.10
40374;DHT22;26079;45.958;12.492;2023-05-07T08:33:48;23.90;73.00
40374;DHT22;26079;45.958;12.492;2023-05-07T08:36:14;23.90;74.40
40374;DHT22;26079;45.958;12.492;2023-05-07T08:38:39;24.10;71.60
40374;DHT22;26079;45.958;12.492;2023-05-07T08:41:10;24.20;70.10
40374;DHT22;26079;45.958;12.492;2023-05-07T08:43:36;24.00;68.80
40374;DHT22;26079;45.958;12.492;2023-05-07T08:46:04;24.00;71.50
40374;DHT22;26079;45.958;12.492;2023-05-07T08:48:31;24.20;71.30
40374;DHT22;26079;45.958;12.492;2023-05-07T08:50:58;24.40;70.80
40374;DHT22;26079;45.958;12.492;2023-05-07T08:53:24;24.40;68.90
40374;DHT22;26079;45.958;12.492;2023-05-07T08:55:51;24.40;66.90
40374;DHT22;26079;45.958;12.492;2023-05-07T08:58:17;24.30;67.40
40374;DHT22;26079;45.958;12.492;2023-05-07T09:00:43;24.30;70.00
40374;DHT22;26079;45.958;12.492;2023-05-07T09:03:08;24.40;70.50
40374;DHT22;26079;45.958;12.492;2023-05-07T09:05:37;24.40;69.60
40374;DHT22;26079;45.958;12.492;2023-05-07T09:08:03;24.30;69.60
40374;DHT22;26079;45.958;12.492;2023-05-07T09:10:33;24.30;70.80
40374;DHT22;26079;45.958;12.492;2023-05-07T09:12:59;24.40;69.60
40374;DHT22;26079;45.958;12.492;2023-05-07T09:15:28;24.60;70.50
40374;DHT22;26079;45.958;12.492;2023-05-07T09:17:53;24.80;70.50
40374;DHT22;26079;45.958;12.492;2023-05-07T09:20:19;24.90;68.30
40374;DHT22;26079;45.958;12.492;2023-05-07T09:22:45;25.00;68.50
40374;DHT22;26079;45.958;12.492;2023-05-07T09:25:11;25.10;69.10
40374;DHT22;26079;45.958;12.492;2023-05-07T09:27:37;25.30;69.90
40374;DHT22;26079;45.958;12.492;2023-05-07T09:30:06;25.50;67.20
40374;DHT22;26079;45.958;12.492;2023-05-07T09:32:36;25.40;68.20
40374;DHT22;26079;45.958;12.492;2023-05-07T09:35:05;25.20;67.70
40374;DHT22;26079;45.958;12.492;2023-05-07T09:37:31;25.00;68.90
40374;DHT22;26079;45.958;12.492;2023-05-07T09:39:58;24.90;69.00
40374;DHT22;26079;45.958;12.492;2023-05-07T09:42:24;25.10;68.00
40374;DHT22;26079;45.958;12.492;2023-05-07T09:44:52;25.00;67.20
40374;DHT22;26079;45.958;12.492;2023-05-07T09:47:19;24.80;67.50
40374;DHT22;26079;45.958;12.492;2023-05-07T09:49:48;25.10;67.70
40374;DHT22;26079;45.958;12.492;2023-05-07T09:52:14;25.20;68.00
40374;DHT22;26079;45.958;12.492;2023-05-07T09:54:40;25.20;69.00
40374;DHT22;26079;45.958;12.492;2023-05-07T09:57:10;25.10;67.40
40374;DHT22;26079;45.958;12.492;2023-05-07T09:59:37;25.00;69.30
40374;DHT22;26079;45.958;12.492;2023-05-07T10:02:03;25.10;70.90
40374;DHT22;26079;45.958;12.492;2023-05-07T10:04:30;25.10;70.60
40374;DHT22;26079;45.958;12.492;2023-05-07T10:06:56;24.80;67.20
40374;DHT22;26079;45.958;12.492;2023-05-07T10:09:23;24.70;68.40
40374;DHT22;26079;45.958;12.492;2023-05-07T10:11:49;24.50;68.10
40374;DHT22;26079;45.958;12.492;2023-05-07T10:14:15;24.40;70.50
40374;DHT22;26079;45.958;12.492;2023-05-07T10:16:41;24.30;69.40
40374;DHT22;26079;45.958;12.492;2023-05-07T10:19:08;24.30;70.20
40374;DHT22;26079;45.958;12.492;2023-05-07T10:21:39;24.30;71.50
40374;DHT22;26079;45.958;12.492;2023-05-07T10:24:16;24.40;69.40
40374;DHT22;26079;45.958;12.492;2023-05-07T10:26:48;24.40;68.80
40374;DHT22;26079;45.958;12.492;2023-05-07T10:29:21;24.30;72.00
40374;DHT22;26079;45.958;12.492;2023-05-07T10:32:14;24.20;71.70
40374;DHT22;26079;45.958;12.492;2023-05-07T10:34:48;24.20;72.10
40374;DHT22;26079;45.958;12.492;2023-05-07T10:37:15;24.30;72.50
40374;DHT22;26079;45.958;12.492;2023-05-07T10:39:41;24.30;70.70
40374;DHT22;26079;45.958;12.492;2023-05-07T10:42:10;24.40;69.50
40374;DHT22;26079;45.958;12.492;2023-05-07T10:44:36;24.40;69.90
40374;DHT22;26079;45.958;12.492;2023-05-07T10:47:13;24.50;70.70
40374;DHT22;26079;45.958;12.492;2023-05-07T10:52:19;25.20;70.00
40374;DHT22;26079;45.958;12.492;2023-05-07T10:54:45;25.30;67.80
40374;DHT22;26079;45.958;12.492;2023-05-07T10:57:35;25.30;68.30
40374;DHT22;26079;45.958;12.492;2023-05-07T11:00:03;25.40;69.20
40374;DHT22;26079;45.958;12.492;2023-05-07T11:05:22;25.70;67.80
40374;DHT22;26079;45.958;12.492;2023-05-07T11:07:56;25.70;69.20
40374;DHT22;26079;45.958;12.492;2023-05-07T11:10:22;25.80;68.20
40374;DHT22;26079;45.958;12.492;2023-05-07T11:12:49;25.80;66.10
40374;DHT22;26079;45.958;12.492;2023-05-07T11:15:33;25.60;67.50
40374;DHT22;26079;45.958;12.492;2023-05-07T11:17:59;25.70;66.70
40374;DHT22;26079;45.958;12.492;2023-05-07T11:20:56;25.50;66.70
40374;DHT22;26079;45.958;12.492;2023-05-07T11:26:06;25.50;68.90
40374;DHT22;26079;45.958;12.492;2023-05-07T11:28:37;25.50;68.60
40374;DHT22;26079;45.958;12.492;2023-05-07T11:31:03;25.60;69.20
40374;DHT22;26079;45.958;12.492;2023-05-07T11:33:33;25.60;67.60
40374;DHT22;26079;45.958;12.492;2023-05-07T11:36:00;25.40;66.70
40374;DHT22;26079;45.958;12.492;2023-05-07T11:38:26;25.40;68.10
40374;DHT22;26079;45.958;12.492;2023-05-07T11:40:55;25.40;67.90
40374;DHT22;26079;45.958;12.492;2023-05-07T11:43:21;25.40;69.60
40374;DHT22;26079;45.958;12.492;2023-05-07T11:45:47;25.50;67.80
40374;DHT22;26079;45.958;12.492;2023-05-07T11:48:14;25.60;66.30
40374;DHT22;26079;45.958;12.492;2023-05-07T11:50:50;25.60;68.30
40374;DHT22;26079;45.958;12.492;2023-05-07T11:53:17;25.80;69.00
40374;DHT22;26079;45.958;12.492;2023-05-07T11:55:43;25.80;67.50
40374;DHT22;26079;45.958;12.492;2023-05-07T11:58:11;25.80;68.70
40374;DHT22;26079;45.958;12.492;2023-05-07T12:00:37;25.70;69.40
40374;DHT22;26079;45.958;12.492;2023-05-07T12:03:04;25.70;67.90
40374;DHT22;26079;45.958;12.492;2023-05-07T12:05:30;25.70;68.70
40374;DHT22;26079;45.958;12.492;2023-05-07T12:07:58;25.70;70.00
40374;DHT22;26079;45.958;12.492;2023-05-07T12:10:24;25.70;68.90
40374;DHT22;26079;45.958;12.492;2023-05-07T12:12:50;25.60;67.50
40374;DHT22;26079;45.958;12.492;2023-05-07T12:15:16;25.50;68.70
40374;DHT22;26079;45.958;12.492;2023-05-07T12:17:42;25.40;69.10
40374;DHT22;26079;45.958;12.492;2023-05-07T12:20:09;25.40;69.00
40374;DHT22;26079;45.958;12.492;2023-05-07T12:22:36;25.40;69.10
40374;DHT22;26079;45.958;12.492;2023-05-07T12:25:03;25.50;68.20
40374;DHT22;26079;45.958;12.492;2023-05-07T12:27:29;25.60;70.20
40374;DHT22;26079;45.958;12.492;2023-05-07T12:29:57;25.60;68.10
40374;DHT22;26079;45.958;12.492;2023-05-07T12:32:23;25.70;68.10
40374;DHT22;26079;45.958;12.492;2023-05-07T12:34:52;25.60;67.30
40374;DHT22;26079;45.958;12.492;2023-05-07T12:37:23;25.70;66.40
40374;DHT22;26079;45.958;12.492;2023-05-07T12:40:08;25.60;67.70
40374;DHT22;26079;45.958;12.492;2023-05-07T12:42:39;25.50;68.40
40374;DHT22;26079;45.958;12.492;2023-05-07T12:45:12;25.40;72.60
40374;DHT22;26079;45.958;12.492;2023-05-07T12:47:38;25.40;69.00
40374;DHT22;26079;45.958;12.492;2023-05-07T12:50:07;25.50;67.70
40374;DHT22;26079;45.958;12.492;2023-05-07T12:52:34;25.70;67.20
40374;DHT22;26079;45.958;12.492;2023-05-07T12:55:06;25.80;67.00
40374;DHT22;26079;45.958;12.492;2023-05-07T12:57:41;25.90;67.10
40374;DHT22;26079;45.958;12.492;2023-05-07T13:00:07;26.00;66.70
40374;DHT22;26079;45.958;12.492;2023-05-07T13:02:33;25.90;66.00
40374;DHT22;26079;45.958;12.492;2023-05-07T13:05:00;25.90;66.60
40374;DHT22;26079;45.958;12.492;2023-05-07T13:07:25;25.90;66.10
40374;DHT22;26079;45.958;12.492;2023-05-07T13:09:51;26.00;65.90
40374;DHT22;26079;45.958;12.492;2023-05-07T13:12:16;26.00;66.30
40374;DHT22;26079;45.958;12.492;2023-05-07T13:14:42;26.10;67.60
40374;DHT22;26079;45.958;12.492;2023-05-07T13:17:08;26.10;67.30
40374;DHT22;26079;45.958;12.492;2023-05-07T13:19:33;26.10;67.60
40374;DHT22;26079;45.958;12.492;2023-05-07T13:21:59;26.10;66.50
40374;DHT22;26079;45.958;12.492;2023-05-07T13:24:25;25.90;65.90
40374;DHT22;26079;45.958;12.492;2023-05-07T13:26:50;25.90;67.60
40374;DHT22;26079;45.958;12.492;2023-05-07T13:29:16;25.80;66.50
40374;DHT22;26079;45.958;12.492;2023-05-07T13:31:42;25.80;66.70
40374;DHT22;26079;45.958;12.492;2023-05-07T13:34:09;25.70;66.90
40374;DHT22;26079;45.958;12.492;2023-05-07T13:36:35;25.60;68.80
40374;DHT22;26079;45.958;12.492;2023-05-07T13:39:03;25.60;69.90
40374;DHT22;26079;45.958;12.492;2023-05-07T13:41:29;25.50;67.90
40374;DHT22;26079;45.958;12.492;2023-05-07T13:43:55;25.40;69.30
40374;DHT22;26079;45.958;12.492;2023-05-07T13:46:21;25.40;69.30
40374;DHT22;26079;45.958;12.492;2023-05-07T13:48:47;25.50;69.00
40374;DHT22;26079;45.958;12.492;2023-05-07T13:51:12;25.50;68.40
40374;DHT22;26079;45.958;12.492;2023-05-07T13:53:38;25.40;68.80
40374;DHT22;26079;45.958;12.492;2023-05-07T13:56:04;25.30;69.40
40374;DHT22;26079;45.958;12.492;2023-05-07T13:58:30;25.30;70.50
40374;DHT22;26079;45.958;12.492;2023-05-07T14:00:56;25.40;70.10
40374;DHT22;26079;45.958;12.492;2023-05-07T14:03:21;25.50;69.00
40374;DHT22;26079;45.958;12.492;2023-05-07T14:05:47;25.60;68.00
40374;DHT22;26079;45.958;12.492;2023-05-07T14:08:13;25.70;68.60
40374;DHT22;26079;45.958;12.492;2023-05-07T14:10:39;25.60;68.70
40374;DHT22;26079;45.958;12.492;2023-05-07T14:13:06;25.50;68.30
40374;DHT22;26079;45.958;12.492;2023-05-07T14:15:32;25.50;68.60
40374;DHT22;26079;45.958;12.492;2023-05-07T14:17:59;25.60;68.70
40374;DHT22;26079;45.958;12.492;2023-05-07T14:20:25;25.80;68.70
40374;DHT22;26079;45.958;12.492;2023-05-07T14:22:51;25.90;67.90
40374;DHT22;26079;45.958;12.492;2023-05-07T14:25:17;25.40;68.70
40374;DHT22;26079;45.958;12.492;2023-05-07T14:27:42;25.00;70.80
40374;DHT22;26079;45.958;12.492;2023-05-07T14:30:08;25.10;73.00
40374;DHT22;26079;45.958;12.492;2023-05-07T14:32:34;25.20;70.70
40374;DHT22;26079;45.958;12.492;2023-05-07T14:35:00;25.30;72.40
40374;DHT22;26079;45.958;12.492;2023-05-07T14:37:25;25.30;71.50
40374;DHT22;26079;45.958;12.492;2023-05-07T14:39:51;25.20;72.00
40374;DHT22;26079;45.958;12.492;2023-05-07T14:42:17;25.30;70.10
40374;DHT22;26079;45.958;12.492;2023-05-07T14:44:43;25.10;69.90
40374;DHT22;26079;45.958;12.492;2023-05-07T14:47:10;25.00;71.10
40374;DHT22;26079;45.958;12.492;2023-05-07T14:49:36;25.10;71.00
40374;DHT22;26079;45.958;12.492;2023-05-07T14:52:01;25.10;69.80
40374;DHT22;26079;45.958;12.492;2023-05-07T14:54:27;25.10;70.40
40374;DHT22;26079;45.958;12.492;2023-05-07T14:56:53;24.90;70.40
40374;DHT22;26079;45.958;12.492;2023-05-07T14:59:19;25.00;69.60
40374;DHT22;26079;45.958;12.492;2023-05-07T15:01:47;25.10;69.90
40374;DHT22;26079;45.958;12.492;2023-05-07T15:04:12;25.30;68.70
40374;DHT22;26079;45.958;12.492;2023-05-07T15:06:38;25.40;69.20
40374;DHT22;26079;45.958;12.492;2023-05-07T15:09:04;25.30;67.80
40374;DHT22;26079;45.958;12.492;2023-05-07T15:11:30;25.20;67.40
40374;DHT22;26079;45.958;12.492;2023-05-07T15:13:56;25.10;70.00
40374;DHT22;26079;45.958;12.492;2023-05-07T15:16:21;25.20;69.20
40374;DHT22;26079;45.958;12.492;2023-05-07T15:18:48;25.20;70.10
40374;DHT22;26079;45.958;12.492;2023-05-07T15:21:13;25.10;69.60
40374;DHT22;26079;45.958;12.492;2023-05-07T15:23:39;25.10;69.80